sensor_id;sensor_type;location;lat;lon;timestamp;pressure;altitude;pressure_sealevel;temperature;humidity
7586;BME280;12459;42.646;23.292;2023-01-31T00:08:59;93116.47;;;7.78;100.00
7586;BME280;12459;42.646;23.292;2023-01-31T00:24:00;93106.53;;;7.82;100.00
7586;BME280;12459;42.646;23.292;2023-01-31T00:39:03;93116.47;;;7.78;100.00
7586;BME280;12459;42.646;23.292;2023-01-31T00:54:05;93122.19;;;7.80;100.00
7586;BME280;12459;42.646;23.292;2023-01-31T01:09:06;93125.63;;;7.77;100.00
7586;BME280;12459;42.646;23.292;2023-01-31T01:24:11;93124.13;;;7.76;100.00
7586;BME280;12459;42.646;23.292;2023-01-31T01:39:13;93088.72;;;7.72;100.00
7586;BME280;12459;42.646;23.292;2023-01-31T01:54:16;93095.59;;;7.73;100.00
7586;BME280;12459;42.646;23.292;2023-01-31T02:10:06;93101.34;;;7.67;100.00
7586;BME280;12459;42.646;23.292;2023-01-31T02:24:53;93109.72;;;7.69;100.00
7586;BME280;12459;42.646;23.292;2023-01-31T02:55:31;93104.38;;;7.69;100.00
7586;BME280;12459;42.646;23.292;2023-01-31T03:10:58;93148.59;;;7.67;100.00
7586;BME280;12459;42.646;23.292;2023-01-31T03:26:01;93171.47;;;7.64;100.00
7586;BME280;12459;42.646;23.292;2023-01-31T03:41:09;93203.47;;;7.64;100.00
7586;BME280;12459;42.646;23.292;2023-01-31T03:56:17;93216.06;;;7.60;100.00
7586;BME280;12459;42.646;23.292;2023-01-31T04:11:23;93221.75;;;7.62;100.00
7586;BME280;12459;42.646;23.292;2023-01-31T04:26:26;93245.75;;;7.62;100.00
7586;BME280;12459;42.646;23.292;2023-01-31T04:41:28;93251.84;;;7.63;100.00
7586;BME280;12459;42.646;23.292;2023-01-31T04:56:29;93254.19;;;7.54;100.00
7586;BME280;12459;42.646;23.292;2023-01-31T05:11:32;93263.72;;;7.51;100.00
7586;BME280;12459;42.646;23.292;2023-01-31T05:26:33;93289.25;;;7.52;100.00
7586;BME280;12459;42.646;23.292;2023-01-31T05:41:35;93293.41;;;7.57;100.00
7586;BME280;12459;42.646;23.292;2023-01-31T06:12:43;93302.22;;;7.47;100.00
7586;BME280;12459;42.646;23.292;2023-01-31T06:27:45;93304.13;;;7.50;100.00
7586;BME280;12459;42.646;23.292;2023-01-31T06:42:46;93309.34;;;7.64;100.00
7586;BME280;12459;42.646;23.292;2023-01-31T06:57:48;93326.13;;;7.64;100.00
7586;BME280;12459;42.646;23.292;2023-01-31T07:12:50;93326.50;;;7.63;100.00
7586;BME280;12459;42.646;23.292;2023-01-31T07:27:52;93335.25;;;7.67;100.00
7586;BME280;12459;42.646;23.292;2023-01-31T07:42:57;93332.56;;;7.71;100.00
7586;BME280;12459;42.646;23.292;2023-01-31T07:57:59;93354.28;;;7.69;100.00
7586;BME280;12459;42.646;23.292;2023-01-31T08:13:04;93335.63;;;7.65;100.00
7586;BME280;12459;42.646;23.292;2023-01-31T08:28:06;93328.31;;;7.77;100.00
7586;BME280;12459;42.646;23.292;2023-01-31T08:43:08;93317.06;;;8.07;100.00
7586;BME280;12459;42.646;23.292;2023-01-31T08:58:09;93319.63;;;8.21;100.00
7586;BME280;12459;42.646;23.292;2023-01-31T09:13:11;93318.81;;;8.27;100.00
7586;BME280;12459;42.646;23.292;2023-01-31T10:15:08;93272.25;;;8.36;100.00
7586;BME280;12459;42.646;23.292;2023-01-31T10:30:16;93260.78;;;8.39;100.00
7586;BME280;12459;42.646;23.292;2023-01-31T10:45:21;93262.72;;;8.38;100.00
7586;BME280;12459;42.646;23.292;2023-01-31T11:00:28;93269.19;;;8.37;100.00
7586;BME280;12459;42.646;23.292;2023-01-31T11:15:34;93277.56;;;8.39;100.00
7586;BME280;12459;42.646;23.292;2023-01-31T11:30:37;93287.50;;;8.39;100.00
7586;BME280;12459;42.646;23.292;2023-01-31T11:45:44;93285.59;;;8.39;100.00
7586;BME280;12459;42.646;23.292;2023-01-31T12:15:59;93292.84;;;8.39;100.00
7586;BME280;12459;42.646;23.292;2023-01-31T13:16:38;93298.56;;;8.37;100.00
7586;BME280;12459;42.646;23.292;2023-01-31T13:31:45;93302.00;;;8.30;100.00
7586;BME280;12459;42.646;23.292;2023-01-31T13:46:54;93308.13;;;8.27;100.00
7586;BME280;12459;42.646;23.292;2023-01-31T14:01:59;93315.03;;;8.21;100.00
7586;BME280;12459;42.646;23.292;2023-01-31T14:17:11;93322.72;;;8.16;100.00
7586;BME280;12459;42.646;23.292;2023-01-31T14:32:22;93335.69;;;8.14;100.00
7586;BME280;12459;42.646;23.292;2023-01-31T15:17:33;93390.25;;;8.06;100.00
7586;BME280;12459;42.646;23.292;2023-01-31T15:47:58;93411.25;;;8.04;100.00
7586;BME280;12459;42.646;23.292;2023-01-31T16:03:00;93426.50;;;8.03;100.00
7586;BME280;12459;42.646;23.292;2023-01-31T16:18:02;93440.97;;;8.02;100.00
7586;BME280;12459;42.646;23.292;2023-01-31T16:33:04;93455.84;;;7.99;100.00
7586;BME280;12459;42.646;23.292;2023-01-31T17:03:26;93491.34;;;7.93;100.00
7586;BME280;12459;42.646;23.292;2023-01-31T17:18:29;93494.75;;;7.97;100.00
7586;BME280;12459;42.646;23.292;2023-01-31T17:33:31;93498.59;;;7.92;100.00
7586;BME280;12459;42.646;23.292;2023-01-31T17:48:33;93514.19;;;7.94;100.00
7586;BME280;12459;42.646;23.292;2023-01-31T18:03:34;93522.22;;;7.90;100.00
7586;BME280;12459;42.646;23.292;2023-01-31T18:18:36;93547.00;;;7.91;100.00
7586;BME280;12459;42.646;23.292;2023-01-31T18:33:41;93569.09;;;7.88;100.00
7586;BME280;12459;42.646;23.292;2023-01-31T18:48:44;93566.44;;;7.88;100.00
7586;BME280;12459;42.646;23.292;2023-01-31T19:03:46;93562.22;;;7.90;100.00
7586;BME280;12459;42.646;23.292;2023-01-31T19:18:50;93571.38;;;7.89;100.00
7586;BME280;12459;42.646;23.292;2023-01-31T19:33:56;93583.56;;;7.90;100.00
7586;BME280;12459;42.646;23.292;2023-01-31T19:48:58;93598.84;;;7.86;100.00
7586;BME280;12459;42.646;23.292;2023-01-31T20:04:00;93614.06;;;7.86;100.00
7586;BME280;12459;42.646;23.292;2023-01-31T20:19:02;93613.31;;;7.85;100.00
7586;BME280;12459;42.646;23.292;2023-01-31T20:34:04;93636.16;;;7.90;100.00
7586;BME280;12459;42.646;23.292;2023-01-31T20:49:07;93634.66;;;7.89;100.00
7586;BME280;12459;42.646;23.292;2023-01-31T21:04:08;93642.28;;;7.87;100.00
7586;BME280;12459;42.646;23.292;2023-01-31T21:19:10;93650.66;;;7.82;100.00
7586;BME280;12459;42.646;23.292;2023-01-31T21:34:12;93650.66;;;7.82;100.00
7586;BME280;12459;42.646;23.292;2023-01-31T21:49:13;93651.06;;;7.80;100.00
7586;BME280;12459;42.646;23.292;2023-01-31T22:04:15;93660.56;;;7.78;100.00
7586;BME280;12459;42.646;23.292;2023-01-31T22:19:20;93656.78;;;7.79;100.00
7586;BME280;12459;42.646;23.292;2023-01-31T22:34:22;93671.25;;;7.78;100.00
7586;BME280;12459;42.646;23.292;2023-01-31T23:21:51;93646.88;;;7.76;100.00
7586;BME280;12459;42.646;23.292;2023-01-31T23:36:53;93639.25;;;7.74;100.00
